Home   Weather   Tempelhof   Past weeks
Flag for Germany

Past Weather in Tempelhof, Berlin, Germany — May 2020

Currently: 66 °F. Partly sunny. (Weather station: Berlin-Schoenefeld, Germany). See more current weather

May 2020 Weather in Tempelhof — Graph

°F

High & Low Weather Summary for May 2020

 TemperatureHumidityPressure
High75 °F (May 10, 1:50 pm)100% (May 2, 6:20 am)30.54 "Hg (May 2, 6:20 am)
Low30 °F (May 12, 5:50 am)26% (May 8, 6:50 pm)29.53 "Hg (May 1, 4:20 pm)
Average55 °F64%30.09 "Hg
* Reported May 1 12:20 am — May 31 11:50 pm, Tempelhof. Weather by CustomWeather, © 2022

Note: Actual official high and low records may vary slightly from our data, if they occured in-between our weather recording intervals... More about our weather records

Tempelhof Weather History for May 1, 2020

Scroll right to see more
 ConditionsComfort  
Time TempWeatherWind HumidityBarometerVisibility
12:20 am
Fri, May 1
55 °FClear.10 mph77%29.59 "Hg10 mi
12:50 am54 °FRain. Passing clouds.13 mph88%29.56 "HgN/A
1:20 am54 °FLight rain. Passing clouds.12 mph88%29.56 "HgN/A
1:50 am55 °FLight rain. Passing clouds.20 mph77%29.56 "HgN/A
2:20 am54 °FLight rain. Passing clouds.21 mph72%29.59 "HgN/A
2:50 am52 °FClear.14 mph77%29.59 "Hg10 mi
3:20 am52 °FClear.14 mph82%29.59 "Hg10 mi
3:50 am50 °FClear.12 mph82%29.59 "Hg10 mi
4:20 am50 °FClear.9 mph82%29.59 "Hg10 mi
4:50 am50 °FClear.9 mph82%29.59 "Hg10 mi
5:20 am50 °FClear.10 mph82%29.59 "Hg10 mi
5:50 am48 °FSunny.10 mph87%29.59 "Hg10 mi
6:20 am48 °FSunny.9 mph87%29.59 "Hg10 mi
6:50 am50 °FSunny.8 mph82%29.59 "Hg10 mi
7:20 am52 °FSunny.10 mph77%29.59 "Hg10 mi
7:50 am52 °FSunny.12 mph77%29.59 "Hg10 mi
8:20 am52 °FSunny.9 mph77%29.59 "Hg10 mi
8:50 am55 °FSunny.15 mph72%29.59 "Hg10 mi
9:20 am54 °FScattered clouds.15 mph72%29.59 "HgN/A
9:50 am57 °FScattered clouds.14 mph67%29.59 "HgN/A
10:20 am55 °FScattered clouds.12 mph67%29.59 "HgN/A
10:50 am57 °FPartly sunny.14 mph63%29.59 "HgN/A
11:20 am59 °FPartly sunny.12 mph55%29.59 "HgN/A
11:50 am57 °FScattered clouds.15 mph59%29.59 "HgN/A
12:20 pm57 °FScattered clouds.12 mph59%29.59 "HgN/A
12:50 pm59 °FPassing clouds.18 mph48%29.56 "HgN/A
1:20 pm59 °FScattered clouds.15 mph51%29.56 "HgN/A
1:50 pm63 °FScattered clouds.16 mph52%29.56 "HgN/A
2:20 pm61 °FSunny.14 mph52%29.56 "Hg10 mi
2:50 pm61 °FSunny.15 mph52%29.56 "Hg10 mi
3:20 pm63 °FPassing clouds.14 mph49%29.56 "HgN/A
3:50 pm63 °FSunny.13 mph45%29.56 "Hg10 mi
4:20 pm63 °FSunny.15 mph42%29.53 "Hg10 mi
4:50 pm63 °FPassing clouds.8 mph45%29.53 "HgN/A
5:20 pm63 °FSunny.10 mph45%29.53 "Hg10 mi
5:50 pm61 °FPassing clouds.8 mph45%29.53 "HgN/A
6:20 pm61 °FScattered showers. Passing clouds.7 mph52%29.53 "HgN/A
6:50 pm61 °FSprinkles. Partly sunny.14 mph48%29.53 "HgN/A
7:20 pm57 °FScattered clouds.7 mph67%29.53 "HgN/A
7:50 pm55 °FSunny.5 mph72%29.53 "Hg10 mi
8:20 pm55 °FSunny.10 mph72%29.56 "Hg10 mi
8:50 pm55 °FClear.10 mph67%29.56 "Hg10 mi
9:20 pm54 °FClear.8 mph72%29.56 "Hg10 mi
9:50 pm55 °FClear.10 mph67%29.56 "Hg10 mi
10:20 pm54 °FLight rain. Passing clouds.12 mph72%29.56 "HgN/A
10:50 pm52 °FClear.9 mph77%29.56 "Hg10 mi
11:20 pm52 °FClear.9 mph77%29.56 "Hg10 mi
11:50 pm52 °FClear.8 mph77%29.59 "Hg10 mi
Weather by CustomWeather, © 2022

See weather overview